AAL5487 KBHM-KCLT
Flight info
| Callsign | AAL5487 |
|---|---|
| Flight time | 0h 59m |
| Altitude | 35000 |
| Route | BHM8 CHEHA DCT BESTT JONZE5 |
| Aircraft | CRJ9/M-VGDW/C |
Departure
| Time | 2026-04-22 13:41 |
|---|---|
| Airport | Birmingham-Shuttlesworth International Airport (KBHM) |
Arrival
| Time | 2026-04-22 14:40 |
|---|---|
| Airport | Charlotte Douglas International Airport (KCLT) |
| Time | Latitude | Longitude | Altitude | Speed | Heading |
|---|---|---|---|---|---|
| 2026-04-22 13:04 | 33.56209 | -86.75530 | 629 ft | 0 kts | 192° |
| 2026-04-22 13:30 | 33.56203 | -86.75531 | 638 ft | 2 kts | 180° |
| 2026-04-22 13:30 | 33.56194 | -86.75526 | 637 ft | 1 kts | 127° |
| 2026-04-22 13:31 | 33.56193 | -86.75525 | 637 ft | 0 kts | 120° |
| 2026-04-22 13:31 | 33.56193 | -86.75523 | 637 ft | 0 kts | 104° |
| 2026-04-22 13:31 | 33.56193 | -86.75522 | 637 ft | 0 kts | 90° |
| 2026-04-22 13:31 | 33.56193 | -86.75517 | 637 ft | 0 kts | 79° |
| 2026-04-22 13:34 | 33.56194 | -86.75516 | 637 ft | 1 kts | 77° |
| 2026-04-22 13:35 | 33.56196 | -86.75507 | 637 ft | 1 kts | 63° |
| 2026-04-22 13:35 | 33.56203 | -86.75497 | 637 ft | 2 kts | 44° |
| 2026-04-22 13:35 | 33.56227 | -86.75470 | 640 ft | 6 kts | 43° |
| 2026-04-22 13:35 | 33.56265 | -86.75427 | 639 ft | 10 kts | 47° |
| 2026-04-22 13:36 | 33.56317 | -86.75365 | 640 ft | 12 kts | 30° |
| 2026-04-22 13:36 | 33.56399 | -86.75343 | 640 ft | 14 kts | 32° |
| 2026-04-22 13:36 | 33.56470 | -86.75239 | 640 ft | 17 kts | 52° |
| 2026-04-22 13:36 | 33.56541 | -86.75121 | 642 ft | 18 kts | 57° |
| 2026-04-22 13:37 | 33.56600 | -86.74979 | 642 ft | 20 kts | 81° |
| 2026-04-22 13:37 | 33.56626 | -86.74830 | 646 ft | 15 kts | 62° |
| 2026-04-22 13:37 | 33.56682 | -86.74726 | 649 ft | 16 kts | 55° |
| 2026-04-22 13:37 | 33.56749 | -86.74608 | 647 ft | 18 kts | 56° |
| 2026-04-22 13:38 | 33.56825 | -86.74477 | 647 ft | 20 kts | 55° |
| 2026-04-22 13:38 | 33.56947 | -86.74265 | 645 ft | 9 kts | 58° |
| 2026-04-22 13:38 | 33.56997 | -86.74186 | 645 ft | 15 kts | 50° |
| 2026-04-22 13:39 | 33.57069 | -86.74055 | 643 ft | 23 kts | 59° |
| 2026-04-22 13:39 | 33.57150 | -86.73910 | 646 ft | 20 kts | 55° |
| 2026-04-22 13:39 | 33.57258 | -86.73853 | 651 ft | 18 kts | 328° |
| 2026-04-22 13:39 | 33.57322 | -86.73930 | 651 ft | 12 kts | 288° |
| 2026-04-22 13:40 | 33.57319 | -86.73972 | 650 ft | 0 kts | 236° |
| 2026-04-22 13:40 | 33.57269 | -86.74059 | 652 ft | 47 kts | 235° |
| 2026-04-22 13:40 | 33.57069 | -86.74400 | 647 ft | 102 kts | 234° |
| 2026-04-22 13:40 | 33.56324 | -86.75715 | 813 ft | 169 kts | 236° |
| 2026-04-22 13:41 | 33.55895 | -86.76506 | 1342 ft | 173 kts | 238° |
| 2026-04-22 13:41 | 33.55226 | -86.77799 | 2211 ft | 185 kts | 238° |
| 2026-04-22 13:41 | 33.54508 | -86.79165 | 3094 ft | 202 kts | 236° |
| 2026-04-22 13:41 | 33.53707 | -86.80630 | 3995 ft | 218 kts | 236° |
| 2026-04-22 13:42 | 33.52625 | -86.81948 | 4969 ft | 228 kts | 207° |
| 2026-04-22 13:42 | 33.51066 | -86.82317 | 6051 ft | 235 kts | 174° |
| 2026-04-22 13:42 | 33.49505 | -86.81602 | 6865 ft | 253 kts | 144° |
| 2026-04-22 13:42 | 33.48359 | -86.79941 | 7402 ft | 268 kts | 114° |
| 2026-04-22 13:43 | 33.48010 | -86.77753 | 8189 ft | 271 kts | 88° |
| 2026-04-22 13:43 | 33.48157 | -86.75491 | 9027 ft | 274 kts | 83° |
| 2026-04-22 13:43 | 33.48385 | -86.73184 | 9635 ft | 285 kts | 82° |
| 2026-04-22 13:43 | 33.48659 | -86.70781 | 10158 ft | 300 kts | 81° |
| 2026-04-22 13:44 | 33.48953 | -86.68234 | 10537 ft | 317 kts | 84° |
| 2026-04-22 13:44 | 33.49160 | -86.65552 | 11133 ft | 326 kts | 84° |
| 2026-04-22 13:44 | 33.49334 | -86.62832 | 11879 ft | 329 kts | 88° |
| 2026-04-22 13:44 | 33.49268 | -86.60090 | 12657 ft | 330 kts | 97° |
| 2026-04-22 13:45 | 33.48871 | -86.57378 | 13460 ft | 331 kts | 104° |
| 2026-04-22 13:45 | 33.48223 | -86.54731 | 14231 ft | 332 kts | 110° |
| 2026-04-22 13:45 | 33.47431 | -86.52147 | 14809 ft | 337 kts | 112° |
| 2026-04-22 13:45 | 33.46563 | -86.49471 | 15388 ft | 343 kts | 111° |
| 2026-04-22 13:46 | 33.45704 | -86.46822 | 15949 ft | 348 kts | 111° |
| 2026-04-22 13:46 | 33.44834 | -86.44088 | 16512 ft | 354 kts | 110° |
| 2026-04-22 13:46 | 33.43980 | -86.41300 | 17064 ft | 359 kts | 109° |
| 2026-04-22 13:46 | 33.43124 | -86.38467 | 17608 ft | 365 kts | 109° |
| 2026-04-22 13:47 | 33.42247 | -86.35591 | 18145 ft | 370 kts | 109° |
| 2026-04-22 13:47 | 33.41360 | -86.32674 | 18687 ft | 376 kts | 109° |
| 2026-04-22 13:47 | 33.40459 | -86.29718 | 19179 ft | 380 kts | 109° |
| 2026-04-22 13:47 | 33.39550 | -86.26736 | 19675 ft | 384 kts | 109° |
| 2026-04-22 13:48 | 33.38629 | -86.23716 | 20160 ft | 387 kts | 109° |
| 2026-04-22 13:48 | 33.37744 | -86.20655 | 20630 ft | 391 kts | 103° |
| 2026-04-22 13:48 | 33.37567 | -86.17419 | 21080 ft | 392 kts | 84° |
| 2026-04-22 13:48 | 33.37902 | -86.14174 | 21541 ft | 395 kts | 79° |
| 2026-04-22 13:49 | 33.38345 | -86.10920 | 21985 ft | 398 kts | 79° |
| 2026-04-22 13:49 | 33.38784 | -86.07633 | 22424 ft | 401 kts | 80° |
| 2026-04-22 13:49 | 33.39161 | -86.04309 | 22865 ft | 404 kts | 81° |
| 2026-04-22 13:49 | 33.39488 | -86.00952 | 23300 ft | 408 kts | 82° |
| 2026-04-22 13:50 | 33.39827 | -85.97575 | 23729 ft | 411 kts | 81° |
| 2026-04-22 13:50 | 33.40174 | -85.94163 | 24086 ft | 414 kts | 81° |
| 2026-04-22 13:50 | 33.40522 | -85.90731 | 24438 ft | 416 kts | 82° |
| 2026-04-22 13:50 | 33.40871 | -85.87281 | 24778 ft | 419 kts | 82° |
| 2026-04-22 13:51 | 33.41217 | -85.83845 | 25105 ft | 422 kts | 82° |
| 2026-04-22 13:51 | 33.41566 | -85.80351 | 25419 ft | 425 kts | 82° |
| 2026-04-22 13:51 | 33.41918 | -85.76830 | 25735 ft | 427 kts | 82° |
| 2026-04-22 13:51 | 33.42271 | -85.73293 | 26038 ft | 430 kts | 82° |
| 2026-04-22 13:52 | 33.42623 | -85.69727 | 26330 ft | 432 kts | 82° |
| 2026-04-22 13:52 | 33.42979 | -85.66147 | 26614 ft | 435 kts | 82° |
| 2026-04-22 13:52 | 33.43334 | -85.62544 | 26898 ft | 437 kts | 82° |
| 2026-04-22 13:52 | 33.43692 | -85.58913 | 27173 ft | 440 kts | 82° |
| 2026-04-22 13:53 | 33.44050 | -85.55266 | 27445 ft | 442 kts | 82° |
| 2026-04-22 13:53 | 33.44409 | -85.51614 | 27807 ft | 442 kts | 82° |
| 2026-04-22 13:53 | 33.44764 | -85.47959 | 28148 ft | 442 kts | 82° |
| 2026-04-22 13:53 | 33.45120 | -85.44301 | 28491 ft | 442 kts | 82° |
| 2026-04-22 13:54 | 33.45475 | -85.40643 | 28815 ft | 442 kts | 82° |
| 2026-04-22 13:54 | 33.45824 | -85.37030 | 29132 ft | 443 kts | 82° |
| 2026-04-22 13:54 | 33.46176 | -85.33371 | 29450 ft | 443 kts | 82° |
| 2026-04-22 13:54 | 33.46530 | -85.29697 | 29772 ft | 443 kts | 82° |
| 2026-04-22 13:55 | 33.46881 | -85.26026 | 30088 ft | 443 kts | 82° |
| 2026-04-22 13:55 | 33.47232 | -85.22352 | 30383 ft | 444 kts | 82° |
| 2026-04-22 13:55 | 33.47580 | -85.18684 | 30665 ft | 443 kts | 82° |
| 2026-04-22 13:55 | 33.47929 | -85.15020 | 30958 ft | 442 kts | 82° |
| 2026-04-22 13:56 | 33.48276 | -85.11357 | 31247 ft | 440 kts | 82° |
| 2026-04-22 13:56 | 33.48619 | -85.07713 | 31524 ft | 439 kts | 82° |
| 2026-04-22 13:56 | 33.48961 | -85.04087 | 31793 ft | 438 kts | 82° |
| 2026-04-22 13:56 | 33.49301 | -85.00464 | 32053 ft | 437 kts | 82° |
| 2026-04-22 13:57 | 33.49639 | -84.96846 | 32311 ft | 436 kts | 82° |
| 2026-04-22 13:57 | 33.49970 | -84.93290 | 32558 ft | 435 kts | 82° |
| 2026-04-22 13:57 | 33.50303 | -84.89690 | 32766 ft | 434 kts | 82° |
| 2026-04-22 13:57 | 33.50636 | -84.86096 | 33027 ft | 433 kts | 82° |
| 2026-04-22 13:58 | 33.50967 | -84.82511 | 33261 ft | 432 kts | 82° |
| 2026-04-22 13:58 | 33.51300 | -84.78927 | 33477 ft | 432 kts | 82° |
| 2026-04-22 13:58 | 33.51631 | -84.75357 | 33710 ft | 431 kts | 82° |
| 2026-04-22 13:58 | 33.51958 | -84.71787 | 33927 ft | 430 kts | 81° |
| 2026-04-22 13:59 | 33.52282 | -84.68225 | 34131 ft | 430 kts | 81° |
| 2026-04-22 13:59 | 33.52606 | -84.64667 | 34325 ft | 429 kts | 81° |
| 2026-04-22 13:59 | 33.52928 | -84.61114 | 34490 ft | 429 kts | 81° |
| 2026-04-22 13:59 | 33.53246 | -84.57564 | 34638 ft | 428 kts | 82° |
| 2026-04-22 14:00 | 33.53543 | -84.54009 | 34772 ft | 429 kts | 82° |
| 2026-04-22 14:00 | 33.53841 | -84.50457 | 34908 ft | 429 kts | 82° |
| 2026-04-22 14:00 | 33.54139 | -84.46904 | 35066 ft | 428 kts | 82° |
| 2026-04-22 14:00 | 33.54439 | -84.43357 | 35195 ft | 428 kts | 82° |
| 2026-04-22 14:01 | 33.55064 | -84.36267 | 35283 ft | 433 kts | 82° |
| 2026-04-22 14:01 | 33.55693 | -84.29034 | 35302 ft | 440 kts | 82° |
| 2026-04-22 14:02 | 33.56329 | -84.21708 | 35305 ft | 443 kts | 82° |
| 2026-04-22 14:02 | 33.56967 | -84.14349 | 35320 ft | 443 kts | 82° |
| 2026-04-22 14:03 | 33.57600 | -84.07000 | 35300 ft | 443 kts | 82° |
| 2026-04-22 14:03 | 33.58228 | -83.99644 | 35303 ft | 444 kts | 82° |
| 2026-04-22 14:04 | 33.58852 | -83.92323 | 35301 ft | 444 kts | 82° |
| 2026-04-22 14:04 | 33.60062 | -83.85099 | 35304 ft | 441 kts | 70° |
| 2026-04-22 14:05 | 33.61954 | -83.78108 | 35300 ft | 441 kts | 69° |
| 2026-04-22 14:06 | 33.64607 | -83.67507 | 35304 ft | 443 kts | 71° |
| 2026-04-22 14:06 | 33.66352 | -83.60413 | 35303 ft | 442 kts | 69° |
| 2026-04-22 14:07 | 33.68859 | -83.53723 | 35309 ft | 438 kts | 57° |
| 2026-04-22 14:07 | 33.72015 | -83.47473 | 35307 ft | 437 kts | 54° |
| 2026-04-22 14:08 | 33.75150 | -83.41196 | 35308 ft | 439 kts | 56° |
| 2026-04-22 14:08 | 33.78209 | -83.34907 | 35304 ft | 439 kts | 56° |
| 2026-04-22 14:09 | 33.81288 | -83.28560 | 35306 ft | 440 kts | 56° |
| 2026-04-22 14:09 | 33.84408 | -83.22232 | 35302 ft | 439 kts | 54° |
| 2026-04-22 14:10 | 33.87719 | -83.16060 | 35304 ft | 439 kts | 53° |
| 2026-04-22 14:10 | 33.91075 | -83.09902 | 35306 ft | 440 kts | 53° |
| 2026-04-22 14:11 | 33.94422 | -83.03730 | 35300 ft | 440 kts | 53° |
| 2026-04-22 14:11 | 33.97774 | -82.97554 | 35303 ft | 441 kts | 53° |
| 2026-04-22 14:12 | 34.01127 | -82.91356 | 35306 ft | 442 kts | 53° |
| 2026-04-22 14:12 | 34.04482 | -82.85149 | 35304 ft | 442 kts | 53° |
| 2026-04-22 14:13 | 34.07834 | -82.78932 | 35299 ft | 442 kts | 53° |
| 2026-04-22 14:13 | 34.11189 | -82.72702 | 35304 ft | 443 kts | 53° |
| 2026-04-22 14:14 | 34.14524 | -82.66504 | 35301 ft | 443 kts | 53° |
| 2026-04-22 14:14 | 34.17878 | -82.60251 | 35299 ft | 443 kts | 53° |
| 2026-04-22 14:15 | 34.21227 | -82.53998 | 35295 ft | 443 kts | 53° |
| 2026-04-22 14:15 | 34.24574 | -82.47740 | 35296 ft | 444 kts | 53° |
| 2026-04-22 14:16 | 34.27927 | -82.41460 | 35280 ft | 445 kts | 53° |
| 2026-04-22 14:16 | 34.29618 | -82.38282 | 34843 ft | 457 kts | 53° |
| 2026-04-22 14:16 | 34.31360 | -82.35020 | 34589 ft | 464 kts | 53° |
| 2026-04-22 14:17 | 34.34851 | -82.28444 | 34565 ft | 464 kts | 53° |
| 2026-04-22 14:17 | 34.38342 | -82.21869 | 33689 ft | 479 kts | 54° |
| 2026-04-22 14:17 | 34.40160 | -82.18442 | 32905 ft | 484 kts | 54° |
| 2026-04-22 14:18 | 34.41965 | -82.15021 | 32351 ft | 480 kts | 54° |
| 2026-04-22 14:18 | 34.43752 | -82.11634 | 31772 ft | 475 kts | 54° |
| 2026-04-22 14:18 | 34.45534 | -82.08263 | 30994 ft | 474 kts | 54° |
| 2026-04-22 14:18 | 34.47302 | -82.04910 | 30385 ft | 469 kts | 54° |
| 2026-04-22 14:19 | 34.49048 | -82.01590 | 29732 ft | 464 kts | 54° |
| 2026-04-22 14:19 | 34.50772 | -81.98316 | 29080 ft | 458 kts | 54° |
| 2026-04-22 14:19 | 34.52471 | -81.95080 | 28366 ft | 452 kts | 55° |
| 2026-04-22 14:19 | 34.54149 | -81.91890 | 27676 ft | 446 kts | 55° |
| 2026-04-22 14:20 | 34.57439 | -81.85624 | 26349 ft | 434 kts | 55° |
| 2026-04-22 14:20 | 34.59048 | -81.82556 | 25714 ft | 428 kts | 55° |
| 2026-04-22 14:20 | 34.60635 | -81.79524 | 25094 ft | 423 kts | 55° |
| 2026-04-22 14:21 | 34.63757 | -81.73562 | 23917 ft | 414 kts | 55° |
| 2026-04-22 14:21 | 34.65291 | -81.70622 | 23209 ft | 410 kts | 55° |
| 2026-04-22 14:22 | 34.68322 | -81.64820 | 21857 ft | 403 kts | 55° |
| 2026-04-22 14:22 | 34.69818 | -81.61950 | 21212 ft | 401 kts | 55° |
| 2026-04-22 14:22 | 34.72763 | -81.56297 | 19987 ft | 396 kts | 56° |
| 2026-04-22 14:23 | 34.74230 | -81.53478 | 19413 ft | 394 kts | 56° |
| 2026-04-22 14:23 | 34.75772 | -81.50751 | 18840 ft | 390 kts | 49° |
| 2026-04-22 14:23 | 34.77590 | -81.48321 | 18270 ft | 386 kts | 43° |
| 2026-04-22 14:23 | 34.79496 | -81.46032 | 17693 ft | 383 kts | 42° |
| 2026-04-22 14:24 | 34.81387 | -81.43773 | 17143 ft | 380 kts | 43° |
| 2026-04-22 14:24 | 34.83231 | -81.41486 | 16588 ft | 377 kts | 44° |
| 2026-04-22 14:24 | 34.85030 | -81.39174 | 16060 ft | 374 kts | 45° |
| 2026-04-22 14:24 | 34.86809 | -81.36885 | 15540 ft | 371 kts | 45° |
| 2026-04-22 14:25 | 34.88583 | -81.34615 | 15030 ft | 368 kts | 45° |
| 2026-04-22 14:25 | 34.90341 | -81.32361 | 14528 ft | 365 kts | 46° |
| 2026-04-22 14:25 | 34.92086 | -81.30115 | 14016 ft | 363 kts | 46° |
| 2026-04-22 14:25 | 34.93815 | -81.27888 | 13503 ft | 360 kts | 46° |
| 2026-04-22 14:26 | 34.95518 | -81.25674 | 12977 ft | 356 kts | 46° |
| 2026-04-22 14:26 | 34.97202 | -81.23474 | 12484 ft | 353 kts | 46° |
| 2026-04-22 14:26 | 34.98846 | -81.21325 | 11989 ft | 350 kts | 46° |
| 2026-04-22 14:26 | 35.00506 | -81.19175 | 11499 ft | 346 kts | 45° |
| 2026-04-22 14:27 | 35.02153 | -81.17056 | 11017 ft | 343 kts | 45° |
| 2026-04-22 14:27 | 35.03787 | -81.14955 | 10552 ft | 340 kts | 45° |
| 2026-04-22 14:27 | 35.05388 | -81.12883 | 10283 ft | 330 kts | 45° |
| 2026-04-22 14:27 | 35.06931 | -81.10876 | 10139 ft | 318 kts | 45° |
| 2026-04-22 14:28 | 35.08419 | -81.08959 | 10063 ft | 304 kts | 44° |
| 2026-04-22 14:28 | 35.09871 | -81.07159 | 10016 ft | 289 kts | 36° |
| 2026-04-22 14:28 | 35.11619 | -81.06202 | 9993 ft | 269 kts | 7° |
| 2026-04-22 14:28 | 35.13430 | -81.05993 | 10018 ft | 253 kts | 356° |
| 2026-04-22 14:29 | 35.15142 | -81.06102 | 9870 ft | 242 kts | 352° |
| 2026-04-22 14:29 | 35.16236 | -81.06241 | 9662 ft | 236 kts | 350° |
| 2026-04-22 14:29 | 35.17853 | -81.06471 | 9282 ft | 231 kts | 350° |
| 2026-04-22 14:29 | 35.19444 | -81.06676 | 8874 ft | 228 kts | 351° |
| 2026-04-22 14:30 | 35.21022 | -81.06834 | 8458 ft | 226 kts | 352° |
| 2026-04-22 14:30 | 35.22583 | -81.06970 | 8041 ft | 223 kts | 352° |
| 2026-04-22 14:30 | 35.24125 | -81.07104 | 7654 ft | 221 kts | 352° |
| 2026-04-22 14:30 | 35.25647 | -81.07240 | 7269 ft | 218 kts | 352° |
| 2026-04-22 14:31 | 35.27148 | -81.07360 | 6881 ft | 215 kts | 352° |
| 2026-04-22 14:31 | 35.28615 | -81.07476 | 6456 ft | 205 kts | 352° |
| 2026-04-22 14:31 | 35.30000 | -81.07588 | 6045 ft | 194 kts | 352° |
| 2026-04-22 14:31 | 35.31304 | -81.07686 | 5776 ft | 179 kts | 352° |
| 2026-04-22 14:32 | 35.32538 | -81.07786 | 5442 ft | 177 kts | 352° |
| 2026-04-22 14:32 | 35.33759 | -81.07893 | 5141 ft | 175 kts | 350° |
| 2026-04-22 14:32 | 35.34956 | -81.07998 | 4827 ft | 174 kts | 351° |
| 2026-04-22 14:32 | 35.36147 | -81.08087 | 4599 ft | 168 kts | 352° |
| 2026-04-22 14:33 | 35.37302 | -81.08149 | 4396 ft | 164 kts | 352° |
| 2026-04-22 14:33 | 35.38434 | -81.08231 | 4151 ft | 162 kts | 352° |
| 2026-04-22 14:33 | 35.39605 | -81.08221 | 3884 ft | 179 kts | 8° |
| 2026-04-22 14:33 | 35.40601 | -81.07242 | 3647 ft | 196 kts | 56° |
| 2026-04-22 14:34 | 35.40922 | -81.05581 | 3509 ft | 205 kts | 85° |
| 2026-04-22 14:34 | 35.41005 | -81.03818 | 3347 ft | 209 kts | 87° |
| 2026-04-22 14:34 | 35.41037 | -81.02029 | 3174 ft | 211 kts | 89° |
| 2026-04-22 14:34 | 35.41053 | -81.00251 | 3007 ft | 206 kts | 91° |
| 2026-04-22 14:35 | 35.40718 | -80.98606 | 2855 ft | 194 kts | 127° |
| 2026-04-22 14:35 | 35.39788 | -80.97562 | 2823 ft | 174 kts | 146° |
| 2026-04-22 14:35 | 35.38807 | -80.96893 | 2799 ft | 154 kts | 175° |
| 2026-04-22 14:35 | 35.37784 | -80.96712 | 2784 ft | 147 kts | 178° |
| 2026-04-22 14:36 | 35.36736 | -80.96535 | 2804 ft | 158 kts | 179° |
| 2026-04-22 14:36 | 35.35600 | -80.96395 | 2927 ft | 167 kts | 180° |
| 2026-04-22 14:36 | 35.34445 | -80.96277 | 2861 ft | 165 kts | 182° |
| 2026-04-22 14:36 | 35.33319 | -80.96203 | 2910 ft | 157 kts | 184° |
| 2026-04-22 14:37 | 35.32195 | -80.96146 | 2733 ft | 167 kts | 182° |
| 2026-04-22 14:37 | 35.31010 | -80.96045 | 2463 ft | 171 kts | 180° |
| 2026-04-22 14:37 | 35.29845 | -80.95908 | 2218 ft | 163 kts | 181° |
| 2026-04-22 14:37 | 35.28747 | -80.95803 | 2025 ft | 155 kts | 183° |
| 2026-04-22 14:38 | 35.27694 | -80.95740 | 1792 ft | 148 kts | 181° |
| 2026-04-22 14:38 | 35.26683 | -80.95652 | 1608 ft | 145 kts | 181° |
| 2026-04-22 14:38 | 35.25671 | -80.95583 | 1409 ft | 145 kts | 180° |
| 2026-04-22 14:38 | 35.24666 | -80.95505 | 1132 ft | 144 kts | 180° |
| 2026-04-22 14:39 | 35.23723 | -80.95419 | 937 ft | 130 kts | 180° |
| 2026-04-22 14:39 | 35.22863 | -80.95338 | 775 ft | 117 kts | 179° |
| 2026-04-22 14:39 | 35.22124 | -80.95283 | 739 ft | 90 kts | 174° |
| 2026-04-22 14:40 | 35.21727 | -80.95124 | 732 ft | 11 kts | 147° |
| 2026-04-22 14:40 | 35.21684 | -80.95052 | 731 ft | 11 kts | 69° |
| 2026-04-22 14:40 | 35.21739 | -80.94992 | 732 ft | 11 kts | 59° |
| 2026-04-22 14:40 | 35.21777 | -80.94908 | 732 ft | 12 kts | 72° |
| 2026-04-22 14:41 | 35.21807 | -80.94819 | 733 ft | 11 kts | 32° |
| 2026-04-22 14:41 | 35.21879 | -80.94792 | 735 ft | 10 kts | 2° |
| 2026-04-22 14:41 | 35.21952 | -80.94797 | 736 ft | 10 kts | 3° |
| 2026-04-22 14:41 | 35.21985 | -80.94795 | 737 ft | 0 kts | 4° |